Time;durP1;ratioP1;P1;durP2;ratioP2;P2;SDS_P1;SDS_P2;PMS_P1;PMS_P2;Temp;Humidity;BMP_temperature;BMP_pressure;BME280_temperature;BME280_humidity;BME280_pressure;Samples;Min_cycle;Max_cycle;Signal;HPM_P1;HPM_P2
2021/07/23 00:00:01;;;;;;;;;;;25.60;47.60;;;;;;1571201;73;748;-58
2021/07/23 00:02:03;;;;;;;;;;;25.60;47.60;;;;;;1583611;73;1112;-60
2021/07/23 00:04:04;;;;;;;;;;;25.60;47.70;;;;;;1577778;74;718;-59
2021/07/23 00:06:06;;;;;;;;;;;25.60;47.70;;;;;;1565831;74;704;-59
2021/07/23 00:08:08;;;;;;;;;;;25.60;47.60;;;;;;1583605;74;694;-59
2021/07/23 00:10:10;;;;;;;;;;;25.60;47.70;;;;;;1574669;74;741;-60
2021/07/23 00:12:12;;;;;;;;;;;25.60;47.80;;;;;;1573419;74;1525;-58
2021/07/23 00:14:14;;;;;;;;;;;25.60;47.80;;;;;;1580341;73;1930;-59
2021/07/23 00:16:16;;;;;;;;;;;25.60;47.80;;;;;;1577303;73;715;-59
2021/07/23 00:18:18;;;;;;;;;;;25.60;47.80;;;;;;1579149;74;729;-59
2021/07/23 00:20:20;;;;;;;;;;;25.60;47.80;;;;;;1572721;74;681;-58
2021/07/23 00:22:22;;;;;;;;;;;25.60;47.80;;;;;;1585906;73;1174;-59
2021/07/23 00:24:24;;;;;;;;;;;25.60;47.70;;;;;;1585752;74;714;-59
2021/07/23 00:26:25;;;;;;;;;;;25.60;47.80;;;;;;1575800;73;702;-59
2021/07/23 00:28:27;;;;;;;;;;;25.60;47.60;;;;;;1589721;74;697;-59
2021/07/23 00:30:29;;;;;;;;;;;25.60;47.70;;;;;;1572859;73;728;-58
2021/07/23 00:32:31;;;;;;;;;;;25.60;47.70;;;;;;1569227;73;1150;-58
2021/07/23 00:34:33;;;;;;;;;;;25.60;47.60;;;;;;1569216;73;1938;-59
2021/07/23 00:36:35;;;;;;;;;;;25.60;47.60;;;;;;1573136;73;670;-59
2021/07/23 00:38:37;;;;;;;;;;;25.50;47.60;;;;;;1565804;73;665;-59
2021/07/23 00:40:39;;;;;;;;;;;25.60;47.60;;;;;;1569418;73;710;-59
2021/07/23 00:42:41;;;;;;;;;;;25.50;47.60;;;;;;1579501;74;1087;-60
2021/07/23 00:44:43;;;;;;;;;;;25.60;47.70;;;;;;1581643;73;733;-59
2021/07/23 00:46:45;;;;;;;;;;;25.60;47.70;;;;;;1574144;74;803;-59
2021/07/23 00:48:46;;;;;;;;;;;25.60;47.60;;;;;;1585980;74;855;-59
2021/07/23 00:50:48;;;;;;;;;;;25.60;47.60;;;;;;1578812;73;572;-58
2021/07/23 00:52:50;;;;;;;;;;;25.60;47.50;;;;;;1569817;74;1157;-59
2021/07/23 00:54:52;;;;;;;;;;;25.60;47.40;;;;;;1574237;74;1918;-59
2021/07/23 00:56:54;;;;;;;;;;;25.70;47.40;;;;;;1573177;73;683;-59
2021/07/23 00:58:56;;;;;;;;;;;25.70;47.40;;;;;;1575057;73;669;-59
2021/07/23 01:00:59;;;;;;;;;;;25.70;47.40;;;;;;1588474;73;624;-60
2021/07/23 01:03:00;;;;;;;;;;;25.50;47.50;;;;;;1572293;73;1184;-58
2021/07/23 01:05:02;;;;;;;;;;;25.50;47.40;;;;;;1569676;73;677;-58
2021/07/23 01:07:04;;;;;;;;;;;25.50;47.50;;;;;;1571716;74;731;-59
2021/07/23 01:09:06;;;;;;;;;;;25.60;47.50;;;;;;1573597;73;754;-59
2021/07/23 01:11:08;;;;;;;;;;;25.60;47.40;;;;;;1577354;74;711;-59
2021/07/23 01:13:11;;;;;;;;;;;25.50;47.50;;;;;;1573247;74;1119;-58
2021/07/23 01:15:13;;;;;;;;;;;25.50;47.40;;;;;;1570299;73;1911;-58
2021/07/23 01:17:15;;;;;;;;;;;25.50;47.30;;;;;;1569134;74;708;-58
2021/07/23 01:19:18;;;;;;;;;;;25.50;47.30;;;;;;1570942;73;765;-59
2021/07/23 01:21:20;;;;;;;;;;;25.50;47.30;;;;;;1577898;74;711;-59
2021/07/23 01:23:26;;;;;;;;;;;25.50;47.30;;;;;;1571980;74;1146;-58
2021/07/23 01:25:28;;;;;;;;;;;25.50;47.30;;;;;;1563370;73;1013;-58
2021/07/23 01:27:33;;;;;;;;;;;25.50;47.30;;;;;;1587232;73;733;-59
2021/07/23 01:29:34;;;;;;;;;;;25.50;47.40;;;;;;1573825;73;1670;-59
2021/07/23 01:31:37;;;;;;;;;;;25.50;47.40;;;;;;1585659;72;220806;-71
2021/07/23 01:33:39;;;;;;;;;;;25.50;47.40;;;;;;1586143;74;744;-71
2021/07/23 01:35:41;;;;;;;;;;;25.50;47.30;;;;;;1582940;74;1926;-73
2021/07/23 01:37:42;;;;;;;;;;;25.50;47.30;;;;;;1580827;74;806;-71
2021/07/23 01:39:44;;;;;;;;;;;25.50;47.30;;;;;;1587830;74;711;-71
2021/07/23 01:41:46;;;;;;;;;;;25.50;47.30;;;;;;1567872;75;1099;-70
2021/07/23 01:43:48;;;;;;;;;;;25.50;47.10;;;;;;1573563;75;768;-72
2021/07/23 01:45:53;;;;;;;;;;;25.50;47.10;;;;;;1573708;74;738;-72
2021/07/23 01:47:54;;;;;;;;;;;25.50;47.10;;;;;;1571303;75;1681;-72
2021/07/23 01:49:56;;;;;;;;;;;25.50;47.10;;;;;;1579686;74;807;-72
2021/07/23 01:51:57;;;;;;;;;;;25.50;47.20;;;;;;1561824;74;1112;-74
2021/07/23 01:53:59;;;;;;;;;;;25.50;47.20;;;;;;1570316;74;794;-71
2021/07/23 01:56:01;;;;;;;;;;;25.50;47.20;;;;;;1568509;74;1959;-71
2021/07/23 01:58:03;;;;;;;;;;;25.50;47.20;;;;;;1571751;74;731;-70
2021/07/23 02:00:05;;;;;;;;;;;25.50;47.20;;;;;;1571515;74;1121;-71
2021/07/23 02:02:07;;;;;;;;;;;25.50;47.10;;;;;;1578173;74;714;-75
2021/07/23 02:04:09;;;;;;;;;;;25.50;47.10;;;;;;1571561;74;791;-73
2021/07/23 02:06:11;;;;;;;;;;;25.50;47.10;;;;;;1577335;75;696;-72
2021/07/23 02:08:13;;;;;;;;;;;25.50;47.10;;;;;;1580175;74;677;-69
2021/07/23 02:10:15;;;;;;;;;;;25.50;47.00;;;;;;1564649;75;1164;-76
2021/07/23 02:12:17;;;;;;;;;;;25.50;47.00;;;;;;1564199;75;788;-72
2021/07/23 02:14:19;;;;;;;;;;;25.50;47.00;;;;;;1585497;75;737;-68
2021/07/23 02:16:20;;;;;;;;;;;25.50;47.00;;;;;;1567412;75;1944;-69
2021/07/23 02:18:22;;;;;;;;;;;25.50;47.00;;;;;;1577035;74;790;-72
2021/07/23 02:20:24;;;;;;;;;;;25.50;47.10;;;;;;1573451;74;1174;-71
2021/07/23 02:22:26;;;;;;;;;;;25.40;47.10;;;;;;1572365;75;780;-71
2021/07/23 02:24:28;;;;;;;;;;;25.40;47.10;;;;;;1571153;75;671;-72
2021/07/23 02:26:30;;;;;;;;;;;25.50;47.20;;;;;;1579007;75;716;-73
2021/07/23 02:28:32;;;;;;;;;;;25.50;47.20;;;;;;1579805;74;792;-71
2021/07/23 02:30:34;;;;;;;;;;;25.40;47.30;;;;;;1570379;74;1128;-70
2021/07/23 02:32:36;;;;;;;;;;;25.50;47.30;;;;;;1560665;75;811;-70
2021/07/23 02:34:37;;;;;;;;;;;25.50;47.10;;;;;;1564997;74;737;-72
2021/07/23 02:36:39;;;;;;;;;;;25.50;47.20;;;;;;1570250;74;1949;-72
2021/07/23 02:38:41;;;;;;;;;;;25.50;47.00;;;;;;1570008;74;710;-72
2021/07/23 02:40:43;;;;;;;;;;;25.50;46.90;;;;;;1568705;74;1145;-71
2021/07/23 02:42:45;;;;;;;;;;;25.50;46.80;;;;;;1568397;74;643;-73
2021/07/23 02:44:47;;;;;;;;;;;25.50;46.80;;;;;;1580201;74;726;-75
2021/07/23 02:46:49;;;;;;;;;;;25.50;46.80;;;;;;1570903;75;809;-71
2021/07/23 02:48:51;;;;;;;;;;;25.50;46.80;;;;;;1572259;75;753;-70
2021/07/23 02:50:52;;;;;;;;;;;25.50;46.80;;;;;;1557562;75;1133;-70
2021/07/23 02:52:55;;;;;;;;;;;25.40;46.80;;;;;;1565609;74;926;-74
2021/07/23 02:54:57;;;;;;;;;;;25.50;46.90;;;;;;1563492;74;1918;-75
2021/07/23 02:56:59;;;;;;;;;;;25.50;47.10;;;;;;1566248;74;785;-73
2021/07/23 02:59:01;;;;;;;;;;;25.50;47.20;;;;;;1555811;74;771;-72
2021/07/23 03:01:04;;;;;;;;;;;25.50;47.20;;;;;;1566684;74;1148;-71
2021/07/23 03:03:06;;;;;;;;;;;25.40;47.30;;;;;;1576722;74;883;-72
2021/07/23 03:05:08;;;;;;;;;;;25.40;47.30;;;;;;1572473;75;789;-74
2021/07/23 03:07:10;;;;;;;;;;;25.40;47.30;;;;;;1577708;74;734;-71
2021/07/23 03:09:12;;;;;;;;;;;25.40;47.30;;;;;;1573291;74;731;-71
2021/07/23 03:11:15;;;;;;;;;;;25.40;47.30;;;;;;1571905;74;1120;-70
2021/07/23 03:13:17;;;;;;;;;;;25.40;47.30;;;;;;1575450;75;790;-71
2021/07/23 03:15:19;;;;;;;;;;;25.50;47.30;;;;;;1570990;75;1971;-74
2021/07/23 03:17:21;;;;;;;;;;;25.50;47.30;;;;;;1562544;74;727;-73
2021/07/23 03:19:22;;;;;;;;;;;25.40;47.30;;;;;;1566994;74;772;-68
2021/07/23 03:21:24;;;;;;;;;;;25.50;47.30;;;;;;1569098;74;1104;-72
2021/07/23 03:23:26;;;;;;;;;;;25.40;47.30;;;;;;1571837;75;770;-71
2021/07/23 03:25:28;;;;;;;;;;;25.50;47.20;;;;;;1566222;75;757;-69
2021/07/23 03:27:30;;;;;;;;;;;25.40;47.30;;;;;;1566326;74;795;-70
2021/07/23 03:29:32;;;;;;;;;;;25.50;47.30;;;;;;1574135;75;820;-72
2021/07/23 03:31:34;;;;;;;;;;;25.40;47.30;;;;;;1576592;74;1111;-72
2021/07/23 03:33:36;;;;;;;;;;;25.40;47.30;;;;;;1572110;74;709;-72
2021/07/23 03:35:37;;;;;;;;;;;25.40;47.30;;;;;;1578571;74;1940;-71
2021/07/23 03:37:39;;;;;;;;;;;25.50;47.20;;;;;;1570177;75;805;-70
2021/07/23 03:39:41;;;;;;;;;;;25.50;47.20;;;;;;1577941;74;721;-70
2021/07/23 03:41:43;;;;;;;;;;;25.40;47.30;;;;;;1573800;74;1131;-71
2021/07/23 03:43:45;;;;;;;;;;;25.50;47.30;;;;;;1573647;74;735;-71
2021/07/23 03:45:47;;;;;;;;;;;25.40;47.40;;;;;;1575674;74;769;-71
2021/07/23 03:47:49;;;;;;;;;;;25.40;47.40;;;;;;1573519;74;838;-72
2021/07/23 03:49:51;;;;;;;;;;;25.50;47.40;;;;;;1574916;74;774;-70
2021/07/23 03:51:52;;;;;;;;;;;25.40;47.30;;;;;;1564261;74;1108;-71
2021/07/23 03:53:54;;;;;;;;;;;25.50;47.30;;;;;;1558899;74;743;-71
2021/07/23 03:55:56;;;;;;;;;;;25.40;47.30;;;;;;1559902;75;1947;-73
2021/07/23 03:57:58;;;;;;;;;;;25.50;47.30;;;;;;1569286;74;701;-71
2021/07/23 04:00:00;;;;;;;;;;;25.50;47.40;;;;;;1566158;74;1140;-74
2021/07/23 04:02:02;;;;;;;;;;;25.40;47.30;;;;;;1563655;74;627;-71
2021/07/23 04:04:04;;;;;;;;;;;25.40;47.30;;;;;;1558075;74;800;-72
2021/07/23 04:06:06;;;;;;;;;;;25.40;47.20;;;;;;1558163;74;756;-74
2021/07/23 04:08:08;;;;;;;;;;;25.50;47.20;;;;;;1554499;75;809;-75
2021/07/23 04:10:10;;;;;;;;;;;25.40;47.20;;;;;;1552284;75;1116;-72
2021/07/23 04:12:12;;;;;;;;;;;25.40;47.20;;;;;;1559494;74;749;-72
2021/07/23 04:14:14;;;;;;;;;;;25.50;47.30;;;;;;1562271;74;694;-73
2021/07/23 04:16:16;;;;;;;;;;;25.50;47.30;;;;;;1568688;74;1946;-71
2021/07/23 04:18:18;;;;;;;;;;;25.40;47.30;;;;;;1560651;74;812;-72
2021/07/23 04:20:19;;;;;;;;;;;25.40;47.30;;;;;;1565573;74;1157;-72
2021/07/23 04:22:21;;;;;;;;;;;25.40;47.30;;;;;;1560516;74;680;-72
2021/07/23 04:24:23;;;;;;;;;;;25.40;47.20;;;;;;1561118;74;738;-74
2021/07/23 04:26:25;;;;;;;;;;;25.40;47.30;;;;;;1576537;74;730;-73
2021/07/23 04:28:27;;;;;;;;;;;25.40;47.30;;;;;;1565184;74;734;-71
2021/07/23 04:30:29;;;;;;;;;;;25.40;47.20;;;;;;1576273;75;1117;-68
2021/07/23 04:32:31;;;;;;;;;;;25.40;47.20;;;;;;1570934;74;772;-74
2021/07/23 04:34:33;;;;;;;;;;;25.40;47.20;;;;;;1574258;74;817;-71
2021/07/23 04:36:39;;;;;;;;;;;25.40;47.30;;;;;;1576787;74;1936;-70
2021/07/23 04:38:38;;;;;;;;;;;25.40;47.30;;;;;;1574977;74;1638;-73
2021/07/23 04:40:40;;;;;;;;;;;25.40;47.40;;;;;;1580006;74;1116;-72
2021/07/23 04:42:42;;;;;;;;;;;25.30;47.30;;;;;;1562478;75;810;-73
2021/07/23 04:44:44;;;;;;;;;;;25.40;47.30;;;;;;1579728;74;775;-69
2021/07/23 04:46:46;;;;;;;;;;;25.40;47.50;;;;;;1569414;74;767;-73
2021/07/23 04:48:48;;;;;;;;;;;25.30;47.40;;;;;;1580975;74;789;-72
2021/07/23 04:50:50;;;;;;;;;;;25.40;47.40;;;;;;1563345;75;1108;-71
2021/07/23 04:52:58;;;;;;;;;;;25.40;47.40;;;;;;1567417;75;748;-70
2021/07/23 04:55:07;;;;;;;;;;;25.40;47.50;;;;;;1566008;74;912;-70
2021/07/23 04:57:03;;;;;;;;;;;25.40;47.50;;;;;;1557663;73;1915;-71
2021/07/23 04:59:05;;;;;;;;;;;25.40;47.40;;;;;;1575653;74;730;-72
2021/07/23 05:01:07;;;;;;;;;;;25.40;47.40;;;;;;1573684;74;1148;-73
2021/07/23 05:03:09;;;;;;;;;;;25.40;47.60;;;;;;1563565;74;809;-72
2021/07/23 05:05:12;;;;;;;;;;;25.40;47.50;;;;;;1562494;74;781;-73
2021/07/23 05:07:14;;;;;;;;;;;25.30;47.40;;;;;;1554026;74;752;-74
2021/07/23 05:09:16;;;;;;;;;;;25.40;47.50;;;;;;1550318;74;808;-74
2021/07/23 05:11:18;;;;;;;;;;;25.30;47.50;;;;;;1550535;75;1136;-75
2021/07/23 05:13:21;;;;;;;;;;;25.40;47.60;;;;;;1570634;75;752;-71
2021/07/23 05:15:23;;;;;;;;;;;25.40;47.50;;;;;;1556708;74;770;-71
2021/07/23 05:17:25;;;;;;;;;;;25.40;47.60;;;;;;1557225;75;1943;-70
2021/07/23 05:19:26;;;;;;;;;;;25.40;47.80;;;;;;1553826;74;743;-71
2021/07/23 05:21:28;;;;;;;;;;;25.40;47.90;;;;;;1562897;74;1155;-70
2021/07/23 05:23:30;;;;;;;;;;;25.40;48.10;;;;;;1558738;75;769;-72
2021/07/23 05:25:32;;;;;;;;;;;25.40;48.00;;;;;;1564191;74;739;-72
2021/07/23 05:27:35;;;;;;;;;;;25.40;48.10;;;;;;1557371;75;826;-72
2021/07/23 05:29:37;;;;;;;;;;;25.50;48.20;;;;;;1554355;74;653;-71
2021/07/23 05:31:40;;;;;;;;;;;25.50;48.20;;;;;;1550570;74;1114;-71
2021/07/23 05:33:42;;;;;;;;;;;25.40;48.30;;;;;;1548667;74;805;-73
2021/07/23 05:35:44;;;;;;;;;;;25.50;48.30;;;;;;1551304;74;769;-73
2021/07/23 05:37:46;;;;;;;;;;;25.50;48.30;;;;;;1566774;75;1940;-73
2021/07/23 05:39:48;;;;;;;;;;;25.50;48.30;;;;;;1559417;74;801;-72
2021/07/23 05:41:49;;;;;;;;;;;25.50;48.40;;;;;;1561666;74;1115;-69
2021/07/23 05:43:51;;;;;;;;;;;25.50;48.30;;;;;;1563927;74;797;-69
2021/07/23 05:45:53;;;;;;;;;;;25.50;47.80;;;;;;1569976;74;797;-67
2021/07/23 05:47:55;;;;;;;;;;;25.50;47.60;;;;;;1564553;75;722;-69
2021/07/23 05:49:57;;;;;;;;;;;25.50;47.60;;;;;;1564150;74;797;-69
2021/07/23 05:51:59;;;;;;;;;;;25.50;47.60;;;;;;1569230;75;1139;-73
2021/07/23 05:54:01;;;;;;;;;;;25.50;47.60;;;;;;1558827;74;741;-72
2021/07/23 05:56:03;;;;;;;;;;;25.50;47.90;;;;;;1559957;74;1921;-75
2021/07/23 05:58:04;;;;;;;;;;;25.50;48.00;;;;;;1564768;75;727;-70
2021/07/23 06:00:07;;;;;;;;;;;25.60;48.10;;;;;;1550966;74;1127;-72
2021/07/23 06:02:09;;;;;;;;;;;25.70;48.20;;;;;;1561722;74;764;-69
2021/07/23 06:04:10;;;;;;;;;;;25.70;48.10;;;;;;1560782;74;815;-69
2021/07/23 06:06:12;;;;;;;;;;;25.80;47.70;;;;;;1558487;75;744;-69
2021/07/23 06:08:14;;;;;;;;;;;25.80;47.80;;;;;;1556543;75;690;-69
2021/07/23 06:10:16;;;;;;;;;;;25.70;47.60;;;;;;1557635;74;1069;-70
2021/07/23 06:12:18;;;;;;;;;;;25.70;47.70;;;;;;1556246;75;782;-70
2021/07/23 06:14:20;;;;;;;;;;;25.80;47.80;;;;;;1553459;74;774;-69
2021/07/23 06:16:22;;;;;;;;;;;25.80;47.80;;;;;;1551033;75;1937;-72
2021/07/23 06:18:24;;;;;;;;;;;25.80;47.70;;;;;;1566741;74;810;-67
2021/07/23 06:20:26;;;;;;;;;;;25.80;47.70;;;;;;1551664;75;1160;-69
2021/07/23 06:22:27;;;;;;;;;;;25.80;47.60;;;;;;1552843;75;724;-72
2021/07/23 06:24:29;;;;;;;;;;;25.80;47.60;;;;;;1561423;74;754;-68
2021/07/23 06:26:31;;;;;;;;;;;25.80;47.60;;;;;;1554129;75;652;-70
2021/07/23 06:28:33;;;;;;;;;;;25.80;47.50;;;;;;1550890;74;790;-70
2021/07/23 06:30:35;;;;;;;;;;;25.80;47.50;;;;;;1550571;74;1183;-70
2021/07/23 06:32:37;;;;;;;;;;;25.80;47.30;;;;;;1571273;74;784;-70
2021/07/23 06:34:39;;;;;;;;;;;25.90;47.30;;;;;;1566785;75;797;-68
2021/07/23 06:36:41;;;;;;;;;;;25.90;47.30;;;;;;1548238;74;1945;-68
2021/07/23 06:38:42;;;;;;;;;;;25.90;47.30;;;;;;1551042;75;803;-71
2021/07/23 06:40:44;;;;;;;;;;;25.90;47.30;;;;;;1565332;74;1163;-65
2021/07/23 06:42:46;;;;;;;;;;;25.90;47.20;;;;;;1559798;75;768;-68
2021/07/23 06:44:48;;;;;;;;;;;25.90;47.10;;;;;;1553920;75;716;-69
2021/07/23 06:46:50;;;;;;;;;;;25.90;47.10;;;;;;1559487;75;742;-70
2021/07/23 06:48:52;;;;;;;;;;;25.90;47.00;;;;;;1569314;74;790;-72
2021/07/23 06:50:54;;;;;;;;;;;25.90;46.90;;;;;;1551153;74;1129;-70
2021/07/23 06:52:56;;;;;;;;;;;25.90;46.80;;;;;;1554187;74;766;-71
2021/07/23 06:54:57;;;;;;;;;;;25.90;46.90;;;;;;1558449;74;760;-69
2021/07/23 06:57:03;;;;;;;;;;;25.90;46.90;;;;;;1558148;74;1923;-67
2021/07/23 06:59:03;;;;;;;;;;;25.90;46.80;;;;;;1563119;74;2061;-71
2021/07/23 07:01:08;;;;;;;;;;;26.00;47.20;;;;;;1560390;74;1131;-70
2021/07/23 07:03:10;;;;;;;;;;;26.00;47.10;;;;;;1566485;74;765;-70
2021/07/23 07:05:12;;;;;;;;;;;26.00;47.10;;;;;;1571024;74;687;-70
2021/07/23 07:07:16;;;;;;;;;;;26.00;47.20;;;;;;1578876;74;614;-68
2021/07/23 07:09:17;;;;;;;;;;;26.00;47.30;;;;;;1571224;74;1681;-70
2021/07/23 07:11:19;;;;;;;;;;;26.00;47.20;;;;;;1553812;74;1237;-69
2021/07/23 07:13:21;;;;;;;;;;;26.10;47.10;;;;;;1551142;75;743;-67
2021/07/23 07:15:23;;;;;;;;;;;26.20;47.00;;;;;;1550518;75;750;-66
2021/07/23 07:17:28;;;;;;;;;;;26.10;47.00;;;;;;1549536;74;1918;-68
2021/07/23 07:19:28;;;;;;;;;;;26.10;47.10;;;;;;1566238;74;1569;-68
2021/07/23 07:21:30;;;;;;;;;;;26.10;47.10;;;;;;1560184;74;1204;-69
2021/07/23 07:23:32;;;;;;;;;;;26.20;47.10;;;;;;1555842;74;744;-69
2021/07/23 07:25:34;;;;;;;;;;;26.20;47.00;;;;;;1563849;74;776;-71
2021/07/23 07:27:36;;;;;;;;;;;26.20;46.80;;;;;;1550832;74;729;-68
2021/07/23 07:29:38;;;;;;;;;;;26.10;47.00;;;;;;1549012;75;730;-69
2021/07/23 07:31:40;;;;;;;;;;;26.20;46.90;;;;;;1567132;73;2050;-69
2021/07/23 07:33:42;;;;;;;;;;;26.20;46.80;;;;;;1571253;73;756;-68
2021/07/23 07:35:44;;;;;;;;;;;26.30;46.90;;;;;;1578700;73;776;-68
2021/07/23 07:37:46;;;;;;;;;;;26.30;46.90;;;;;;1586758;73;1934;-68
2021/07/23 07:39:48;;;;;;;;;;;26.20;47.00;;;;;;1585295;73;705;-67
2021/07/23 07:41:50;;;;;;;;;;;26.10;47.00;;;;;;1559013;74;1170;-68
2021/07/23 07:43:52;;;;;;;;;;;26.20;47.10;;;;;;1550001;74;706;-69
2021/07/23 07:45:55;;;;;;;;;;;26.20;47.10;;;;;;1555933;74;717;-68
2021/07/23 07:47:57;;;;;;;;;;;26.30;47.10;;;;;;1552071;76;550;-68
2021/07/23 07:49:59;;;;;;;;;;;26.30;47.10;;;;;;1536537;76;761;-68
2021/07/23 07:52:01;;;;;;;;;;;26.30;47.00;;;;;;1535315;76;1131;-66
2021/07/23 07:54:02;;;;;;;;;;;26.30;47.00;;;;;;1525615;76;711;-68
2021/07/23 07:56:08;;;;;;;;;;;26.30;46.90;;;;;;1526219;76;1148;-69
2021/07/23 07:58:09;;;;;;;;;;;26.30;46.80;;;;;;1529018;75;1897;-66
2021/07/23 08:00:12;;;;;;;;;;;26.30;46.80;;;;;;1529773;76;797;-68
2021/07/23 08:02:14;;;;;;;;;;;26.30;46.70;;;;;;1524962;76;1081;-68
2021/07/23 08:04:16;;;;;;;;;;;26.30;46.70;;;;;;1534130;76;740;-67
2021/07/23 08:06:26;;;;;;;;;;;26.30;46.70;;;;;;1545448;76;732;-66
2021/07/23 08:08:27;;;;;;;;;;;26.30;46.60;;;;;;1539768;76;1142;-64
2021/07/23 08:10:31;;;;;;;;;;;26.30;46.70;;;;;;1526889;76;1120;-69
2021/07/23 08:12:32;;;;;;;;;;;26.40;46.70;;;;;;1523112;76;772;-68
2021/07/23 08:14:34;;;;;;;;;;;26.50;46.70;;;;;;1522513;76;736;-68
2021/07/23 08:16:36;;;;;;;;;;;26.40;46.70;;;;;;1531653;76;812;-68
2021/07/23 08:18:38;;;;;;;;;;;26.50;46.50;;;;;;1540449;76;1945;-68
2021/07/23 08:20:42;;;;;;;;;;;26.50;46.60;;;;;;1525144;76;1157;-68
2021/07/23 08:22:44;;;;;;;;;;;26.50;46.40;;;;;;1522799;76;655;-71
2021/07/23 08:24:46;;;;;;;;;;;26.50;46.50;;;;;;1538382;76;717;-68
2021/07/23 08:26:48;;;;;;;;;;;26.50;46.30;;;;;;1540030;76;696;-69
2021/07/23 08:28:50;;;;;;;;;;;26.50;46.30;;;;;;1529172;76;761;-68
2021/07/23 08:30:52;;;;;;;;;;;26.60;46.20;;;;;;1528102;76;1191;-69
2021/07/23 08:32:54;;;;;;;;;;;26.50;45.50;;;;;;1494381;76;791;-68
2021/07/23 08:34:56;;;;;;;;;;;26.50;45.90;;;;;;1515011;76;679;-67
2021/07/23 08:36:58;;;;;;;;;;;26.50;45.80;;;;;;1499095;77;785;-65
2021/07/23 08:39:00;;;;;;;;;;;26.50;45.90;;;;;;1520050;76;1951;-67
2021/07/23 08:41:05;;;;;;;;;;;26.50;45.90;;;;;;1523153;76;1162;-69
2021/07/23 08:43:07;;;;;;;;;;;26.60;45.90;;;;;;1522124;76;823;-69
2021/07/23 08:45:09;;;;;;;;;;;26.50;46.00;;;;;;1517362;76;723;-69
2021/07/23 08:47:11;;;;;;;;;;;26.50;46.00;;;;;;1498038;78;735;-67
2021/07/23 08:49:14;;;;;;;;;;;26.60;46.20;;;;;;1523185;76;774;-67
2021/07/23 08:51:22;;;;;;;;;;;26.50;46.10;;;;;;1529610;76;1144;-66
2021/07/23 08:53:23;;;;;;;;;;;26.50;46.30;;;;;;1525728;76;794;-69
2021/07/23 08:55:27;;;;;;;;;;;26.60;46.00;;;;;;1523486;76;726;-66
2021/07/23 08:57:29;;;;;;;;;;;26.60;45.90;;;;;;1539616;76;1934;-67
2021/07/23 08:59:34;;;;;;;;;;;26.50;46.00;;;;;;1533736;76;681;-67
2021/07/23 09:01:53;;;;;;;;;;;26.60;46.00;;;;;;1532074;76;1166;-66
2021/07/23 09:03:56;;;;;;;;;;;26.60;46.00;;;;;;1528532;76;665;-67
2021/07/23 09:05:58;;;;;;;;;;;26.50;45.90;;;;;;1532107;76;757;-69
2021/07/23 09:08:19;;;;;;;;;;;26.50;46.00;;;;;;1526957;76;777;-69
2021/07/23 09:10:21;;;;;;;;;;;26.50;46.00;;;;;;1530845;76;1166;-69
2021/07/23 09:12:23;;;;;;;;;;;26.50;45.90;;;;;;1523684;76;702;-64
2021/07/23 09:14:25;;;;;;;;;;;26.50;46.00;;;;;;1507937;78;656;-65
2021/07/23 09:16:27;;;;;;;;;;;26.60;46.00;;;;;;1493599;78;1350;-68
2021/07/23 09:18:41;;;;;;;;;;;26.60;46.00;;;;;;1522260;77;1948;-67
2021/07/23 09:20:36;;;;;;;;;;;26.60;45.90;;;;;;1509827;78;1381;-67
2021/07/23 09:22:43;;;;;;;;;;;26.50;46.20;;;;;;1497964;78;698;-66
2021/07/23 09:24:51;;;;;;;;;;;26.50;46.00;;;;;;1521904;77;1012;-63
2021/07/23 09:26:53;;;;;;;;;;;26.50;46.40;;;;;;1527023;77;755;-68
2021/07/23 09:28:56;;;;;;;;;;;26.50;46.20;;;;;;1517197;76;737;-68
2021/07/23 09:31:00;;;;;;;;;;;26.40;46.30;;;;;;1524510;76;1179;-68
2021/07/23 09:33:02;;;;;;;;;;;26.40;46.10;;;;;;1546183;75;1106;-65
2021/07/23 09:35:11;;;;;;;;;;;26.50;46.20;;;;;;1553827;75;774;-68
2021/07/23 09:37:13;;;;;;;;;;;26.50;45.90;;;;;;1562789;75;1580;-68
2021/07/23 09:39:18;;;;;;;;;;;26.50;46.00;;;;;;1554058;75;1938;-70
2021/07/23 09:41:24;;;;;;;;;;;26.60;45.80;;;;;;1553586;75;1182;-68
2021/07/23 09:43:33;;;;;;;;;;;26.50;45.80;;;;;;1561195;75;774;-68
2021/07/23 09:45:35;;;;;;;;;;;26.50;45.90;;;;;;1552731;75;785;-68
2021/07/23 09:47:37;;;;;;;;;;;26.50;46.00;;;;;;1559351;76;728;-68
2021/07/23 09:49:40;;;;;;;;;;;26.60;46.00;;;;;;1550208;75;689;-68
2021/07/23 09:51:42;;;;;;;;;;;26.60;45.90;;;;;;1556891;75;1152;-68
2021/07/23 09:53:44;;;;;;;;;;;26.60;46.00;;;;;;1554340;75;706;-67
2021/07/23 09:55:49;;;;;;;;;;;26.60;46.00;;;;;;1556653;75;693;-68
2021/07/23 09:57:51;;;;;;;;;;;26.60;45.90;;;;;;1557096;75;1932;-68
2021/07/23 09:59:58;;;;;;;;;;;26.60;45.90;;;;;;1549882;75;770;-68
2021/07/23 10:02:03;;;;;;;;;;;26.50;45.80;;;;;;1546538;75;1532;-68
2021/07/23 10:04:07;;;;;;;;;;;26.50;45.80;;;;;;1549648;75;727;-68
2021/07/23 10:06:10;;;;;;;;;;;26.60;45.70;;;;;;1550697;75;1681;-66
2021/07/23 10:08:13;;;;;;;;;;;26.50;45.70;;;;;;1551071;75;779;-67
2021/07/23 10:10:15;;;;;;;;;;;26.50;45.80;;;;;;1552912;75;719;-71
2021/07/23 10:12:17;;;;;;;;;;;26.50;45.80;;;;;;1560638;75;1102;-68
2021/07/23 10:14:19;;;;;;;;;;;26.50;45.80;;;;;;1552692;75;811;-69
2021/07/23 10:16:21;;;;;;;;;;;26.60;46.00;;;;;;1549502;75;851;-68
2021/07/23 10:18:23;;;;;;;;;;;26.70;46.00;;;;;;1548582;75;1945;-69
2021/07/23 10:20:25;;;;;;;;;;;26.60;46.00;;;;;;1540764;75;1131;-70
2021/07/23 10:22:27;;;;;;;;;;;26.50;46.00;;;;;;1539894;75;728;-68
2021/07/23 10:24:36;;;;;;;;;;;26.50;46.00;;;;;;1544105;75;774;-67
2021/07/23 10:26:33;;;;;;;;;;;26.60;46.00;;;;;;1547587;75;1412;-65
2021/07/23 10:28:39;;;;;;;;;;;26.50;45.90;;;;;;1540119;75;702;-69
2021/07/23 10:30:42;;;;;;;;;;;26.60;45.60;;;;;;1541028;75;1181;-66
2021/07/23 10:32:44;;;;;;;;;;;26.40;45.00;;;;;;1555484;74;783;-67
2021/07/23 10:34:46;;;;;;;;;;;26.50;45.80;;;;;;1559178;74;669;-68
2021/07/23 10:36:48;;;;;;;;;;;26.50;45.80;;;;;;1555203;74;622;-68
2021/07/23 10:38:51;;;;;;;;;;;26.50;45.70;;;;;;1556880;74;1951;-66
2021/07/23 10:40:53;;;;;;;;;;;26.50;45.50;;;;;;1551918;74;2018;-68
2021/07/23 10:42:55;;;;;;;;;;;26.40;45.60;;;;;;1541572;76;1084;-67
2021/07/23 10:44:57;;;;;;;;;;;26.50;45.50;;;;;;1554777;74;709;-67
2021/07/23 10:46:59;;;;;;;;;;;26.50;45.50;;;;;;1566841;74;682;-63
2021/07/23 10:49:01;;;;;;;;;;;26.50;45.50;;;;;;1556039;74;805;-68
2021/07/23 10:51:03;;;;;;;;;;;26.40;45.30;;;;;;1570641;74;1135;-67
2021/07/23 10:53:23;;;;;;;;;;;26.40;45.30;;;;;;1568365;74;719;-68
2021/07/23 10:55:27;;;;;;;;;;;26.30;45.30;;;;;;1558970;74;814;-68
2021/07/23 10:57:29;;;;;;;;;;;26.30;45.30;;;;;;1549157;74;704;-69
2021/07/23 10:59:42;;;;;;;;;;;26.40;45.30;;;;;;1561217;74;1956;-68
2021/07/23 11:01:54;;;;;;;;;;;26.40;45.30;;;;;;1569107;74;1148;-68
2021/07/23 11:03:59;;;;;;;;;;;26.30;45.50;;;;;;1565088;74;971;-67
2021/07/23 11:05:57;;;;;;;;;;;26.30;45.40;;;;;;1568828;74;1581;-67
2021/07/23 11:07:59;;;;;;;;;;;26.20;45.50;;;;;;1571785;74;736;-67
2021/07/23 11:10:01;;;;;;;;;;;26.30;45.60;;;;;;1561741;74;663;-64
2021/07/23 11:12:18;;;;;;;;;;;26.40;45.60;;;;;;1557081;74;1173;-66
2021/07/23 11:14:20;;;;;;;;;;;26.30;45.60;;;;;;1558374;74;825;-65
2021/07/23 11:16:26;;;;;;;;;;;26.30;45.70;;;;;;1567122;74;712;-66
2021/07/23 11:18:26;;;;;;;;;;;26.20;45.90;;;;;;1569194;74;1914;-67
2021/07/23 11:20:37;;;;;;;;;;;26.20;45.90;;;;;;1574498;73;1147;-67
2021/07/23 11:22:38;;;;;;;;;;;26.20;46.00;;;;;;1565072;74;1522;-65
2021/07/23 11:24:40;;;;;;;;;;;26.20;46.00;;;;;;1566161;74;808;-65
2021/07/23 11:26:44;;;;;;;;;;;26.20;46.00;;;;;;1574612;74;723;-65
2021/07/23 11:28:49;;;;;;;;;;;26.20;46.00;;;;;;1562310;74;1812;-67
2021/07/23 11:30:53;;;;;;;;;;;26.30;45.90;;;;;;1556237;74;1137;-66
2021/07/23 11:32:55;;;;;;;;;;;26.20;45.80;;;;;;1576468;74;1141;-68
2021/07/23 11:35:03;;;;;;;;;;;26.20;45.90;;;;;;1573971;74;712;-66
2021/07/23 11:37:13;;;;;;;;;;;26.30;45.90;;;;;;1573304;74;716;-66
2021/07/23 11:39:15;;;;;;;;;;;26.20;45.80;;;;;;1572149;74;1910;-66
2021/07/23 11:41:16;;;;;;;;;;;26.20;46.00;;;;;;1552375;74;1161;-67
2021/07/23 11:43:20;;;;;;;;;;;26.20;45.90;;;;;;1567224;74;1160;-68
2021/07/23 11:45:23;;;;;;;;;;;26.30;45.90;;;;;;1566223;74;710;-66
2021/07/23 11:47:28;;;;;;;;;;;26.30;45.90;;;;;;1577327;74;719;-67
2021/07/23 11:49:33;;;;;;;;;;;26.30;46.00;;;;;;1557354;74;794;-66
2021/07/23 11:51:37;;;;;;;;;;;26.30;46.00;;;;;;1570675;74;1141;-67
2021/07/23 11:53:41;;;;;;;;;;;26.20;46.10;;;;;;1571400;74;1081;-66
2021/07/23 11:55:43;;;;;;;;;;;26.20;46.10;;;;;;1562885;74;767;-69
2021/07/23 11:57:48;;;;;;;;;;;26.30;46.00;;;;;;1572109;74;704;-68
2021/07/23 11:59:50;;;;;;;;;;;26.20;46.00;;;;;;1575078;74;1926;-67
2021/07/23 12:01:51;;;;;;;;;;;26.20;46.00;;;;;;1577419;74;1174;-67
2021/07/23 12:03:55;;;;;;;;;;;26.20;46.00;;;;;;1577246;74;729;-69
2021/07/23 12:05:58;;;;;;;;;;;26.20;46.00;;;;;;1565938;74;808;-67
2021/07/23 12:08:01;;;;;;;;;;;26.20;45.80;;;;;;1571386;74;1719;-66
2021/07/23 12:10:04;;;;;;;;;;;26.20;45.80;;;;;;1575888;74;678;-66